Time;durP1;ratioP1;P1;durP2;ratioP2;P2;SDS_P1;SDS_P2;PMS_P1;PMS_P2;Temp;Humidity;BMP_temperature;BMP_pressure;BME280_temperature;BME280_humidity;BME280_pressure;Samples;Min_cycle;Max_cycle;Signal;HPM_P1;HPM_P2
2023/12/30 00:01:20;;;;;;;11.02;2.67;;;;;;;7.35;100.00;100912.72;5034034;28;20029;-58
2023/12/30 00:03:46;;;;;;;16.48;3.08;;;;;;;7.33;100.00;100916.44;5031728;28;20459;-58
2023/12/30 00:06:11;;;;;;;9.88;2.70;;;;;;;7.31;100.00;100920.94;5032832;28;20021;-58
2023/12/30 00:08:37;;;;;;;17.80;3.05;;;;;;;7.27;100.00;100922.91;5038531;28;20032;-58
2023/12/30 00:11:02;;;;;;;14.98;3.20;;;;;;;7.22;100.00;100925.84;5034938;28;20398;-56
2023/12/30 00:13:27;;;;;;;12.38;2.90;;;;;;;7.19;100.00;100928.69;5031094;28;20042;-57
2023/12/30 00:15:52;;;;;;;15.63;2.70;;;;;;;7.18;100.00;100934.06;5033456;28;20044;-59
2023/12/30 00:18:18;;;;;;;12.77;2.63;;;;;;;7.16;100.00;100928.88;5032084;28;20482;-58
2023/12/30 00:20:43;;;;;;;13.15;3.30;;;;;;;7.14;100.00;100932.53;5031495;28;20028;-58
2023/12/30 00:23:08;;;;;;;13.02;3.13;;;;;;;7.12;100.00;100931.78;5037698;28;20449;-58
2023/12/30 00:25:34;;;;;;;10.18;2.83;;;;;;;7.10;100.00;100934.53;5033094;28;20536;-56
2023/12/30 00:27:59;;;;;;;11.18;2.65;;;;;;;7.09;100.00;100940.72;5037993;28;20107;-57
2023/12/30 00:30:25;;;;;;;12.70;3.20;;;;;;;7.11;100.00;100944.16;5031881;28;20083;-58
2023/12/30 00:32:50;;;;;;;11.35;3.20;;;;;;;7.09;100.00;100948.66;5034269;28;20462;-58
2023/12/30 00:35:15;;;;;;;14.13;3.53;;;;;;;7.07;100.00;100955.84;5033304;28;20076;-57
2023/12/30 00:37:40;;;;;;;13.95;2.60;;;;;;;7.06;100.00;100958.56;5040870;28;20027;-58
2023/12/30 00:40:06;;;;;;;12.40;2.88;;;;;;;7.06;100.00;100953.28;5032636;28;20040;-58
2023/12/30 00:42:32;;;;;;;14.20;2.70;;;;;;;7.06;100.00;100961.22;5032979;28;20028;-59
2023/12/30 00:44:57;;;;;;;13.18;3.15;;;;;;;7.05;100.00;100963.00;5037146;28;20128;-58
2023/12/30 00:47:22;;;;;;;12.48;2.85;;;;;;;7.04;100.00;100964.81;5034651;28;20060;-59
2023/12/30 00:49:47;;;;;;;10.00;2.85;;;;;;;7.03;100.00;100973.66;5031568;28;20014;-58
2023/12/30 00:52:13;;;;;;;13.32;2.97;;;;;;;7.03;100.00;100963.09;5033231;28;20026;-57
2023/12/30 00:54:38;;;;;;;10.80;2.47;;;;;;;7.03;100.00;100962.25;5035880;28;20041;-58
2023/12/30 00:57:04;;;;;;;13.25;2.47;;;;;;;7.03;100.00;100975.47;5035055;28;20029;-57
2023/12/30 00:59:29;;;;;;;13.05;2.80;;;;;;;7.01;100.00;100978.19;5033860;28;20029;-59
2023/12/30 01:01:54;;;;;;;11.35;2.35;;;;;;;7.00;100.00;100986.19;5032767;28;20390;-57
2023/12/30 01:04:20;;;;;;;12.23;2.72;;;;;;;7.01;100.00;100987.88;5031674;28;20032;-58
2023/12/30 01:06:45;;;;;;;13.88;2.72;;;;;;;7.01;100.00;100985.25;5033815;28;20099;-57
2023/12/30 01:09:10;;;;;;;11.13;2.05;;;;;;;7.02;100.00;100985.16;5040534;28;20038;-58
2023/12/30 01:11:36;;;;;;;10.98;2.60;;;;;;;7.03;100.00;100992.16;5038739;28;20032;-58
2023/12/30 01:14:01;;;;;;;15.15;3.13;;;;;;;7.06;100.00;100984.97;5018138;28;20025;-58
2023/12/30 01:16:26;;;;;;;11.48;2.90;;;;;;;7.09;100.00;100984.78;5034587;28;20506;-58
2023/12/30 01:18:52;;;;;;;17.20;3.17;;;;;;;7.09;100.00;100990.09;5038247;28;20037;-58
2023/12/30 01:21:18;;;;;;;13.65;2.97;;;;;;;7.12;100.00;100981.97;5036278;28;20043;-56
2023/12/30 01:23:43;;;;;;;16.98;3.60;;;;;;;7.14;100.00;101004.69;5035288;28;20479;-58
2023/12/30 01:26:08;;;;;;;13.52;3.33;;;;;;;7.16;100.00;101002.84;5033449;28;20034;-57
2023/12/30 01:28:34;;;;;;;12.60;3.70;;;;;;;7.19;100.00;101012.34;5039809;28;20029;-57
2023/12/30 01:30:59;;;;;;;17.35;5.13;;;;;;;7.22;100.00;101015.66;5035143;28;20017;-57
2023/12/30 01:33:24;;;;;;;19.02;4.43;;;;;;;7.26;100.00;101018.13;5034411;28;20104;-58
2023/12/30 01:35:50;;;;;;;14.40;3.05;;;;;;;7.28;100.00;101026.81;5039358;28;20072;-57
2023/12/30 01:38:15;;;;;;;11.80;3.58;;;;;;;7.29;100.00;101023.22;5038834;28;20034;-57
2023/12/30 01:40:40;;;;;;;17.63;3.20;;;;;;;7.28;100.00;101019.75;5039286;28;20136;-57
2023/12/30 01:43:06;;;;;;;13.40;3.40;;;;;;;7.29;100.00;101010.84;5039029;28;20033;-57
2023/12/30 01:45:32;;;;;;;15.45;3.30;;;;;;;7.28;100.00;101017.09;5041778;28;20032;-58
2023/12/30 01:47:58;;;;;;;14.43;3.15;;;;;;;7.32;100.00;101020.41;5034775;28;20036;-58
2023/12/30 01:50:23;;;;;;;16.77;3.53;;;;;;;7.31;100.00;101021.34;5034332;28;20029;-58
2023/12/30 01:52:50;;;;;;;11.45;2.80;;;;;;;7.31;100.00;101016.06;5035563;28;20064;-58
2023/12/30 01:55:17;;;;;;;13.25;3.13;;;;;;;7.28;100.00;101024.16;5035325;28;20032;-57
2023/12/30 01:57:44;;;;;;;19.58;3.72;;;;;;;7.29;100.00;101032.00;5038905;28;20029;-58
2023/12/30 02:00:15;;;;;;;15.55;3.90;;;;;;;7.28;100.00;101030.31;5022364;28;20097;-57
2023/12/30 02:02:41;;;;;;;9.73;3.03;;;;;;;7.28;100.00;101032.09;5017577;28;20042;-57
2023/12/30 02:05:08;;;;;;;15.88;3.10;;;;;;;7.28;100.00;101038.25;5039656;28;20025;-57
2023/12/30 02:07:33;;;;;;;14.75;3.30;;;;;;;7.27;100.00;101036.53;5036354;28;21519;-58
2023/12/30 02:09:58;;;;;;;12.88;2.85;;;;;;;7.26;100.00;101039.25;5038759;28;20033;-57
2023/12/30 02:12:23;;;;;;;10.75;2.55;;;;;;;7.26;100.00;101042.78;5037519;28;20036;-57
2023/12/30 02:14:49;;;;;;;14.68;3.38;;;;;;;7.27;100.00;101038.31;5037332;28;20526;-57
2023/12/30 02:17:14;;;;;;;14.07;2.90;;;;;;;7.26;100.00;101034.84;5042177;28;20077;-56
2023/12/30 02:19:39;;;;;;;12.32;2.63;;;;;;;7.26;100.00;101036.63;5041017;28;20449;-56
2023/12/30 02:22:05;;;;;;;18.33;3.03;;;;;;;7.29;100.00;101042.56;5021180;28;20429;-56
2023/12/30 02:24:30;;;;;;;15.50;2.90;;;;;;;7.29;100.00;101044.38;5035680;28;20045;-58
2023/12/30 02:26:55;;;;;;;16.02;3.30;;;;;;;7.31;100.00;101055.69;5034349;28;20444;-58
2023/12/30 02:29:20;;;;;;;15.45;3.45;;;;;;;7.35;100.00;101065.97;5037059;28;20025;-58
2023/12/30 02:31:46;;;;;;;12.23;2.70;;;;;;;7.25;100.00;101056.91;5036010;28;20028;-60
2023/12/30 02:34:14;;;;;;;9.02;2.22;;;;;;;7.16;100.00;101055.66;5035323;28;20074;-59
2023/12/30 02:36:39;;;;;;;7.10;2.42;;;;;;;7.09;100.00;101067.50;5039542;28;20429;-58
2023/12/30 02:39:04;;;;;;;13.00;2.92;;;;;;;7.07;100.00;101058.84;5038150;28;20087;-57
2023/12/30 02:41:29;;;;;;;9.30;2.92;;;;;;;7.08;100.00;101072.88;5038824;28;20017;-57
2023/12/30 02:43:58;;;;;;;13.32;3.47;;;;;;;7.08;100.00;101067.59;5036442;28;20018;-58
2023/12/30 02:46:23;;;;;;;9.90;3.35;;;;;;;7.09;100.00;101064.03;5036642;28;21184;-57
2023/12/30 02:48:48;;;;;;;11.60;3.03;;;;;;;7.07;100.00;101064.13;5037576;28;20022;-58
2023/12/30 02:51:15;;;;;;;15.32;3.30;;;;;;;7.09;100.00;101071.97;5032415;28;20738;-56
2023/12/30 02:53:40;;;;;;;12.90;3.40;;;;;;;7.09;100.00;101071.97;5039489;28;20096;-58
2023/12/30 02:56:06;;;;;;;14.57;3.05;;;;;;;7.09;100.00;101069.31;5040422;28;20043;-57
2023/12/30 02:58:31;;;;;;;17.88;3.58;;;;;;;7.08;100.00;101071.13;5034053;28;20604;-58
2023/12/30 03:00:57;;;;;;;16.33;3.05;;;;;;;7.07;100.00;101061.47;5040421;28;20028;-57
2023/12/30 03:03:22;;;;;;;13.13;3.25;;;;;;;7.07;100.00;101073.84;5038852;28;20021;-58
2023/12/30 03:05:47;;;;;;;14.48;3.20;;;;;;;7.06;100.00;101075.66;5035074;28;20053;-58
2023/12/30 03:08:13;;;;;;;12.98;3.33;;;;;;;7.04;100.00;101086.28;5037948;28;20083;-58
2023/12/30 03:10:38;;;;;;;15.38;3.85;;;;;;;7.03;100.00;101076.66;5035692;28;20493;-58
2023/12/30 03:13:03;;;;;;;12.95;3.00;;;;;;;7.02;100.00;101079.38;5032284;28;20037;-58
2023/12/30 03:15:29;;;;;;;16.92;3.17;;;;;;;7.01;100.00;101075.91;5042768;28;20103;-57
2023/12/30 03:17:54;;;;;;;14.32;3.22;;;;;;;6.99;100.00;101076.91;5040402;28;20446;-54
2023/12/30 03:20:19;;;;;;;16.38;2.70;;;;;;;6.98;100.00;101081.34;5035288;28;20454;-54
2023/12/30 03:22:44;;;;;;;14.02;2.97;;;;;;;6.95;100.00;101081.53;5036539;28;20033;-54
2023/12/30 03:25:10;;;;;;;16.27;3.30;;;;;;;6.94;100.00;101076.34;5031132;28;20035;-58
2023/12/30 03:27:35;;;;;;;18.98;3.42;;;;;;;6.94;100.00;101086.91;5038773;28;20082;-57
2023/12/30 03:30:00;;;;;;;15.25;3.40;;;;;;;6.92;100.00;101081.69;5038205;28;20544;-55
2023/12/30 03:32:27;;;;;;;12.98;2.80;;;;;;;6.92;100.00;101079.06;5040874;28;20052;-58
2023/12/30 03:34:53;;;;;;;14.68;3.10;;;;;;;6.92;100.00;101073.78;5034656;28;20029;-57
2023/12/30 03:37:18;;;;;;;19.40;3.63;;;;;;;6.92;100.00;101072.94;5034314;28;20029;-58
2023/12/30 03:39:43;;;;;;;13.18;3.05;;;;;;;6.91;100.00;101076.50;5038568;28;20029;-57
2023/12/30 03:42:08;;;;;;;16.13;3.15;;;;;;;6.90;100.00;101069.53;5017606;28;20449;-55
2023/12/30 03:44:34;;;;;;;19.20;3.53;;;;;;;6.89;100.00;101081.88;5035794;28;20033;-57
2023/12/30 03:47:00;;;;;;;16.08;3.13;;;;;;;6.89;100.00;101083.66;5033597;28;20033;-58
2023/12/30 03:49:25;;;;;;;15.43;2.95;;;;;;;6.88;100.00;101088.13;5031997;28;20108;-56
2023/12/30 03:51:51;;;;;;;12.98;3.03;;;;;;;6.86;100.00;101089.97;5036600;28;20029;-58
2023/12/30 03:54:16;;;;;;;20.77;2.90;;;;;;;6.85;100.00;101090.94;5035354;28;20029;-58
2023/12/30 03:56:41;;;;;;;13.15;2.63;;;;;;;6.82;100.00;101088.44;5030949;28;20078;-58
2023/12/30 03:59:07;;;;;;;15.88;3.03;;;;;;;6.82;100.00;101096.38;5030365;28;20052;-58
2023/12/30 04:01:32;;;;;;;16.27;2.97;;;;;;;6.80;100.00;101087.69;5033815;28;20018;-58
2023/12/30 04:03:57;;;;;;;15.65;3.10;;;;;;;6.78;100.00;101079.88;5035234;28;20086;-60
2023/12/30 04:06:22;;;;;;;14.55;3.13;;;;;;;6.76;100.00;101088.78;5035612;28;20424;-59
2023/12/30 04:08:48;;;;;;;16.73;3.08;;;;;;;6.74;100.00;101082.75;5038925;28;20025;-59
2023/12/30 04:11:13;;;;;;;16.70;3.08;;;;;;;6.71;100.00;101080.28;5034077;28;20024;-57
2023/12/30 04:13:39;;;;;;;17.08;3.10;;;;;;;6.67;100.00;101084.88;5037292;28;20028;-58
2023/12/30 04:16:04;;;;;;;12.80;2.80;;;;;;;6.64;100.00;101079.78;5031955;28;20450;-57
2023/12/30 04:18:30;;;;;;;20.20;3.40;;;;;;;6.61;100.00;101090.50;5037422;28;20475;-59
2023/12/30 04:20:55;;;;;;;9.52;2.50;;;;;;;6.58;100.00;101081.00;5034896;28;20028;-58
2023/12/30 04:23:20;;;;;;;16.25;3.03;;;;;;;6.55;100.00;101086.44;5034495;28;20017;-59
2023/12/30 04:25:45;;;;;;;16.17;3.28;;;;;;;6.51;100.00;101087.53;5040093;28;20025;-58
2023/12/30 04:28:11;;;;;;;15.98;3.08;;;;;;;6.49;100.00;101086.75;5033866;28;20482;-58
2023/12/30 04:30:36;;;;;;;15.73;3.03;;;;;;;6.46;100.00;101085.16;5035809;28;20029;-58
2023/12/30 04:33:01;;;;;;;12.82;2.65;;;;;;;6.44;100.00;101086.16;5032789;28;20030;-58
2023/12/30 04:35:26;;;;;;;12.80;2.78;;;;;;;6.41;100.00;101088.97;5033676;28;20028;-59
2023/12/30 04:37:52;;;;;;;15.48;2.67;;;;;;;6.37;100.00;101085.66;5032599;28;20018;-58
2023/12/30 04:40:17;;;;;;;12.20;2.72;;;;;;;6.35;100.00;101095.44;5033038;28;20033;-59
2023/12/30 04:42:43;;;;;;;16.35;3.47;;;;;;;6.34;100.00;101090.25;5037008;28;20030;-59
2023/12/30 04:45:12;;;;;;;15.20;3.13;;;;;;;6.29;100.00;101087.88;5038636;28;20446;-59
2023/12/30 04:47:39;;;;;;;16.63;2.58;;;;;;;6.27;100.00;101095.88;5038225;28;20063;-58
2023/12/30 04:50:05;;;;;;;19.73;2.80;;;;;;;6.25;100.00;101089.81;5036798;28;20056;-59
2023/12/30 04:52:30;;;;;;;13.60;2.97;;;;;;;6.24;100.00;101085.47;5035112;28;20561;-58
2023/12/30 04:54:55;;;;;;;17.98;3.28;;;;;;;6.22;100.00;101090.00;5043714;28;20025;-58
2023/12/30 04:57:20;;;;;;;15.60;2.83;;;;;;;6.20;100.00;101097.13;5043217;28;20485;-57
2023/12/30 04:59:46;;;;;;;16.13;3.42;;;;;;;6.20;100.00;101104.22;5038609;28;20068;-57
2023/12/30 05:02:11;;;;;;;17.70;3.03;;;;;;;6.17;100.00;101102.56;5018646;28;20051;-58
2023/12/30 05:04:36;;;;;;;19.92;3.85;;;;;;;6.21;100.00;101113.81;5039088;28;20029;-59
2023/12/30 05:07:02;;;;;;;15.27;3.58;;;;;;;6.16;100.00;101108.81;5036625;28;20112;-58
2023/12/30 05:09:27;;;;;;;20.30;3.20;;;;;;;6.14;100.00;101113.28;5039481;28;20455;-58
2023/12/30 05:11:52;;;;;;;15.00;3.83;;;;;;;6.14;100.00;101117.72;5039895;28;20025;-58
2023/12/30 05:14:19;;;;;;;19.15;3.05;;;;;;;6.13;100.00;101114.25;5037359;28;20031;-59
2023/12/30 05:16:45;;;;;;;16.35;3.10;;;;;;;6.11;100.00;101110.81;5034829;28;20061;-58
2023/12/30 05:19:11;;;;;;;17.52;3.15;;;;;;;6.11;100.00;101124.00;5039007;28;20068;-59
2023/12/30 05:21:37;;;;;;;18.05;3.55;;;;;;;6.10;100.00;101117.88;5035866;28;20064;-57
2023/12/30 05:24:02;;;;;;;17.40;3.17;;;;;;;6.10;100.00;101125.78;5033960;28;20326;-58
2023/12/30 05:26:28;;;;;;;18.90;3.50;;;;;;;6.10;100.00;101131.06;5042153;28;20029;-59
2023/12/30 05:28:55;;;;;;;19.65;3.30;;;;;;;6.10;100.00;101140.78;5035375;28;20017;-59
2023/12/30 05:31:20;;;;;;;17.58;3.70;;;;;;;6.07;100.00;101133.84;5041017;28;20125;-58
2023/12/30 05:33:46;;;;;;;14.93;3.22;;;;;;;6.08;100.00;101132.09;5036833;28;20108;-57
2023/12/30 05:36:11;;;;;;;22.73;3.08;;;;;;;6.07;100.00;101136.50;5038576;28;20033;-58
2023/12/30 05:38:37;;;;;;;20.35;3.92;;;;;;;6.07;100.00;101128.59;5037366;28;20032;-59
2023/12/30 05:41:02;;;;;;;20.42;3.35;;;;;;;6.06;100.00;101141.84;5040990;28;20021;-60
2023/12/30 05:43:28;;;;;;;19.25;3.50;;;;;;;6.08;100.00;101140.00;5036678;28;20021;-59
2023/12/30 05:45:53;;;;;;;23.58;4.22;;;;;;;6.07;100.00;101138.28;5039850;28;20025;-58
2023/12/30 05:48:18;;;;;;;15.52;3.60;;;;;;;6.06;100.00;101141.84;5034332;28;20037;-58
2023/12/30 05:50:44;;;;;;;18.42;3.25;;;;;;;6.05;100.00;101150.72;5038782;28;20030;-59
2023/12/30 05:53:10;;;;;;;17.65;3.20;;;;;;;6.03;100.00;101145.50;5035478;28;20386;-58
2023/12/30 05:55:37;;;;;;;17.27;3.20;;;;;;;6.03;100.00;101152.56;5036463;28;20037;-58
2023/12/30 05:58:02;;;;;;;18.58;3.65;;;;;;;6.00;100.00;101143.03;5039514;28;20032;-59
2023/12/30 06:00:27;;;;;;;20.30;3.40;;;;;;;6.00;100.00;101158.00;5038151;28;20473;-58
2023/12/30 06:02:53;;;;;;;17.52;3.08;;;;;;;6.00;100.00;101150.09;5033919;28;20419;-60
2023/12/30 06:05:18;;;;;;;15.52;3.13;;;;;;;5.99;100.00;101151.03;5034208;28;20088;-59
2023/12/30 06:07:43;;;;;;;14.65;3.20;;;;;;;5.97;100.00;101152.91;5021721;28;20087;-59
2023/12/30 06:10:09;;;;;;;17.83;3.65;;;;;;;5.96;100.00;101153.78;5039721;28;20043;-59
2023/12/30 06:12:34;;;;;;;15.13;3.28;;;;;;;5.95;100.00;101158.22;5036683;28;20031;-59
2023/12/30 06:14:59;;;;;;;20.20;3.20;;;;;;;5.94;100.00;101164.41;5038599;28;20040;-59
2023/12/30 06:17:25;;;;;;;18.17;3.17;;;;;;;5.94;100.00;101161.78;5037022;28;20056;-58
2023/12/30 06:19:50;;;;;;;16.63;2.85;;;;;;;5.94;100.00;101159.13;5040526;28;20056;-57
2023/12/30 06:22:15;;;;;;;14.35;4.00;;;;;;;5.93;100.00;101160.94;5039280;28;20033;-58
2023/12/30 06:24:41;;;;;;;13.73;3.03;;;;;;;5.90;100.00;101163.72;5018228;28;20465;-58
2023/12/30 06:27:06;;;;;;;19.60;3.08;;;;;;;5.90;100.00;101168.16;5037486;28;20037;-57
2023/12/30 06:29:31;;;;;;;21.70;3.47;;;;;;;5.91;100.00;101175.09;5034934;28;20030;-58
2023/12/30 06:31:57;;;;;;;14.82;3.05;;;;;;;5.87;100.00;101179.69;5032540;28;20026;-58
2023/12/30 06:34:23;;;;;;;14.95;3.42;;;;;;;5.89;100.00;101183.09;5037253;28;20028;-58
2023/12/30 06:36:48;;;;;;;16.45;3.47;;;;;;;5.89;100.00;101177.81;5037544;28;20090;-58
2023/12/30 06:39:15;;;;;;;16.75;3.13;;;;;;;5.88;100.00;101175.28;5035726;28;20053;-59
2023/12/30 06:41:41;;;;;;;14.73;2.85;;;;;;;5.86;100.00;101183.28;5037049;28;20036;-59
2023/12/30 06:44:06;;;;;;;18.27;3.17;;;;;;;5.87;100.00;101181.47;5035344;28;20438;-59
2023/12/30 06:46:33;;;;;;;13.60;3.13;;;;;;;5.86;100.00;101183.28;5035943;28;20102;-57
2023/12/30 06:48:59;;;;;;;16.42;3.38;;;;;;;5.89;100.00;101185.72;5035791;28;20045;-58
2023/12/30 06:51:24;;;;;;;16.45;2.78;;;;;;;5.91;100.00;101175.09;5038937;28;20025;-58
2023/12/30 06:53:49;;;;;;;17.13;2.95;;;;;;;5.94;100.00;101177.59;5039477;28;20025;-58
2023/12/30 06:56:15;;;;;;;12.60;2.70;;;;;;;5.97;100.00;101180.09;5030853;28;20038;-55
2023/12/30 06:58:45;;;;;;;18.42;3.05;;;;;;;5.98;100.00;101176.56;5033682;28;20056;-58
2023/12/30 07:01:10;;;;;;;13.95;2.80;;;;;;;6.01;100.00;101172.88;5037050;28;20470;-58
2023/12/30 07:03:35;;;;;;;19.40;3.42;;;;;;;6.03;100.00;101176.28;5037341;28;20029;-57
2023/12/30 07:06:01;;;;;;;14.88;2.70;;;;;;;6.05;100.00;101171.81;5035556;28;20437;-58
2023/12/30 07:08:26;;;;;;;15.15;3.10;;;;;;;6.06;100.00;101171.72;5042695;28;20025;-57
2023/12/30 07:10:51;;;;;;;12.18;3.58;;;;;;;6.07;100.00;101176.06;5039147;28;20430;-56
2023/12/30 07:13:17;;;;;;;12.55;2.83;;;;;;;6.06;100.00;101178.78;5022638;28;20363;-56
2023/12/30 07:15:42;;;;;;;16.90;2.95;;;;;;;6.06;100.00;101181.41;5030874;28;20109;-55
2023/12/30 07:18:07;;;;;;;15.05;3.28;;;;;;;6.06;100.00;101182.28;5024174;28;20490;-55
2023/12/30 07:20:34;;;;;;;19.13;3.17;;;;;;;6.05;100.00;101180.56;5031441;28;20037;-55
2023/12/30 07:23:02;;;;;;;19.20;3.33;;;;;;;6.04;100.00;101181.47;5032763;28;20029;-56
2023/12/30 07:25:27;;;;;;;16.05;3.13;;;;;;;6.05;100.00;101185.84;5030436;28;20097;-58
2023/12/30 07:27:52;;;;;;;14.57;3.00;;;;;;;6.05;100.00;101183.19;5030232;28;20152;-58
2023/12/30 07:30:17;;;;;;;15.73;2.90;;;;;;;6.06;100.00;101191.94;5031778;28;20033;-60
2023/12/30 07:32:43;;;;;;;15.35;3.20;;;;;;;6.06;100.00;101186.69;5035005;28;20022;-59
2023/12/30 07:35:08;;;;;;;16.23;3.08;;;;;;;6.08;100.00;101190.13;5034338;28;20108;-60
2023/12/30 07:37:34;;;;;;;19.63;3.63;;;;;;;6.09;100.00;101189.16;5028304;28;20029;-59
2023/12/30 07:40:00;;;;;;;14.30;3.40;;;;;;;6.05;100.00;101193.75;5027702;28;20372;-59
2023/12/30 07:42:26;;;;;;;19.98;3.03;;;;;;;6.05;100.00;101192.91;5028714;28;20168;-57
2023/12/30 07:44:52;;;;;;;13.55;3.10;;;;;;;5.99;100.00;101199.31;5035368;28;20060;-58
2023/12/30 07:47:17;;;;;;;19.77;3.30;;;;;;;5.94;100.00;101196.03;5033441;28;20044;-59
2023/12/30 07:49:43;;;;;;;18.30;3.45;;;;;;;5.90;100.00;101191.88;5026219;28;20445;-59
2023/12/30 07:52:08;;;;;;;20.45;4.47;;;;;;;5.87;100.00;101190.25;5029603;28;20064;-59
2023/12/30 07:54:33;;;;;;;21.45;3.40;;;;;;;5.83;100.00;101198.38;5030513;28;20025;-59
2023/12/30 07:56:59;;;;;;;15.00;3.17;;;;;;;5.81;100.00;101200.25;5031648;28;20029;-58
2023/12/30 07:59:24;;;;;;;18.17;3.20;;;;;;;5.77;100.00;101202.19;5033164;28;20083;-59
2023/12/30 08:01:50;;;;;;;17.08;3.15;;;;;;;5.75;100.00;101214.59;5027750;28;20107;-58
2023/12/30 08:04:16;;;;;;;17.00;3.42;;;;;;;5.74;100.00;101219.03;5034590;28;20044;-59
2023/12/30 08:06:41;;;;;;;15.65;3.15;;;;;;;5.72;100.00;101225.28;5030978;28;20569;-59
2023/12/30 08:09:07;;;;;;;15.65;3.13;;;;;;;5.70;100.00;101224.53;5033733;28;20026;-59
2023/12/30 08:11:35;;;;;;;14.25;3.40;;;;;;;5.70;100.00;101237.69;5036443;28;20052;-59
2023/12/30 08:14:01;;;;;;;18.40;3.00;;;;;;;5.67;100.00;101228.16;5033230;28;20031;-59
2023/12/30 08:16:27;;;;;;;14.55;3.20;;;;;;;5.67;100.00;101233.41;5029642;28;20072;-58
2023/12/30 08:18:52;;;;;;;18.58;3.60;;;;;;;5.67;100.00;101228.16;5042146;28;20107;-59
2023/12/30 08:21:17;;;;;;;14.40;3.17;;;;;;;5.67;100.00;101230.78;5037568;28;20082;-58
2023/12/30 08:23:43;;;;;;;16.83;3.75;;;;;;;5.70;100.00;101224.53;5045135;28;20033;-59
2023/12/30 08:26:08;;;;;;;15.77;2.95;;;;;;;5.71;100.00;101235.00;5037042;28;20030;-59
2023/12/30 08:28:33;;;;;;;20.83;3.67;;;;;;;5.74;100.00;101237.47;5039305;28;20061;-59
2023/12/30 08:31:01;;;;;;;19.90;3.67;;;;;;;5.77;100.00;101233.81;5040077;28;20045;-58
2023/12/30 08:33:27;;;;;;;22.27;4.05;;;;;;;5.79;100.00;101239.84;5039998;28;20052;-58
2023/12/30 08:35:52;;;;;;;16.67;3.85;;;;;;;5.83;100.00;101233.50;5019217;28;20526;-59
2023/12/30 08:38:17;;;;;;;16.40;3.55;;;;;;;5.85;100.00;101234.28;5036854;28;20033;-59
2023/12/30 08:40:43;;;;;;;18.77;3.92;;;;;;;5.87;100.00;101227.16;5038385;28;20033;-59
2023/12/30 08:43:08;;;;;;;21.30;3.83;;;;;;;5.90;100.00;101228.78;5035899;28;20115;-59
2023/12/30 08:45:34;;;;;;;20.65;4.47;;;;;;;5.95;100.00;101225.94;5035999;28;20046;-59
2023/12/30 08:48:00;;;;;;;24.02;4.43;;;;;;;5.96;100.00;101227.59;5037324;28;20722;-59
2023/12/30 08:50:25;;;;;;;21.85;4.32;;;;;;;5.99;100.00;101230.97;5037062;28;20022;-59
2023/12/30 08:52:51;;;;;;;20.65;4.25;;;;;;;6.02;100.00;101236.09;5035179;28;20392;-59
2023/12/30 08:55:16;;;;;;;17.23;3.85;;;;;;;6.04;100.00;101231.59;5032882;28;20068;-58
2023/12/30 08:57:43;;;;;;;17.52;4.32;;;;;;;6.06;100.00;101229.75;5029564;28;20040;-59
2023/12/30 09:00:09;;;;;;;20.00;3.92;;;;;;;6.11;100.00;101232.13;5039887;28;20025;-58
2023/12/30 09:02:37;;;;;;;19.80;4.30;;;;;;;6.14;100.00;101233.75;5037961;28;20398;-58
2023/12/30 09:05:04;;;;;;;20.10;4.35;;;;;;;6.18;100.00;101243.19;5020831;28;20120;-57
2023/12/30 09:07:30;;;;;;;22.15;3.80;;;;;;;6.21;100.00;101243.94;5042695;28;20033;-58
2023/12/30 09:09:56;;;;;;;21.88;4.05;;;;;;;6.24;100.00;101242.91;5039031;28;20021;-59
2023/12/30 09:12:22;;;;;;;19.40;4.68;;;;;;;6.26;100.00;101246.28;5037603;28;20180;-58
2023/12/30 09:14:47;;;;;;;16.05;4.00;;;;;;;6.30;100.00;101255.78;5036709;28;20063;-58
2023/12/30 09:17:13;;;;;;;19.88;4.25;;;;;;;6.33;100.00;101252.97;5044465;28;20045;-60
2023/12/30 09:19:38;;;;;;;22.88;4.57;;;;;;;6.37;100.00;101256.31;5038261;28;20074;-58
2023/12/30 09:22:04;;;;;;;23.52;4.55;;;;;;;6.39;100.00;101257.91;5038325;28;20061;-60
2023/12/30 09:24:29;;;;;;;16.40;4.20;;;;;;;6.42;100.00;101257.75;5037789;28;20029;-59
2023/12/30 09:26:54;;;;;;;22.73;4.82;;;;;;;6.44;100.00;101258.53;5037880;28;20031;-60
2023/12/30 09:29:19;;;;;;;20.45;4.28;;;;;;;6.47;100.00;101262.81;5036576;28;20380;-60
2023/12/30 09:31:45;;;;;;;23.42;4.70;;;;;;;6.49;100.00;101266.19;5032714;28;20112;-59
2023/12/30 09:34:10;;;;;;;22.67;5.00;;;;;;;6.51;100.00;101269.59;5042072;28;20057;-59
2023/12/30 09:36:36;;;;;;;24.92;5.15;;;;;;;6.54;100.00;101274.72;5033681;28;20025;-59
2023/12/30 09:39:01;;;;;;;19.20;4.38;;;;;;;6.58;100.00;101273.66;5030317;28;20072;-58
2023/12/30 09:41:30;;;;;;;21.70;4.50;;;;;;;6.62;100.00;101274.34;5035139;28;20029;-59
2023/12/30 09:43:58;;;;;;;19.52;5.25;;;;;;;6.64;100.00;101273.34;5039841;28;20035;-59
2023/12/30 09:46:24;;;;;;;25.92;5.32;;;;;;;6.68;100.00;101276.66;5034557;28;20527;-59
2023/12/30 09:48:51;;;;;;;17.17;4.88;;;;;;;6.71;100.00;101283.53;5039667;28;20074;-59
2023/12/30 09:51:16;;;;;;;22.88;5.88;;;;;;;6.73;100.00;101273.75;5035273;28;20024;-59
2023/12/30 09:53:42;;;;;;;24.45;5.43;;;;;;;6.77;100.00;101275.31;5035339;28;20106;-59
2023/12/30 09:56:07;;;;;;;16.25;5.70;;;;;;;6.80;100.00;101272.50;5037489;28;20108;-59
2023/12/30 09:58:34;;;;;;;20.73;5.90;;;;;;;6.82;100.00;101268.81;5036870;28;20124;-59
2023/12/30 10:00:59;;;;;;;23.40;6.30;;;;;;;6.86;100.00;101280.06;5036455;28;20037;-58
2023/12/30 10:03:25;;;;;;;20.73;6.07;;;;;;;6.89;100.00;101272.00;5041508;28;20410;-59
2023/12/30 10:05:54;;;;;;;22.20;5.50;;;;;;;6.93;100.00;101270.91;5036134;28;20079;-59
2023/12/30 10:08:20;;;;;;;18.10;5.20;;;;;;;6.96;100.00;101275.16;5035781;28;20029;-59
2023/12/30 10:10:48;;;;;;;19.40;5.80;;;;;;;6.98;100.00;101268.84;5033134;28;20112;-59
2023/12/30 10:13:17;;;;;;;27.80;6.82;;;;;;;7.02;100.00;101270.38;5040937;28;20078;-59
2023/12/30 10:15:43;;;;;;;23.77;5.72;;;;;;;7.05;100.00;101269.38;5032842;28;20430;-59
2023/12/30 10:18:09;;;;;;;24.15;5.88;;;;;;;7.07;100.00;101275.41;5036639;28;20064;-59
2023/12/30 10:20:38;;;;;;;22.38;6.03;;;;;;;7.10;100.00;101277.06;5040181;28;20029;-59
2023/12/30 10:23:03;;;;;;;;;;;;;;;7.15;100.00;101275.84;5039258;28;20053;-59
2023/12/30 10:25:29;;;;;;;17.33;5.45;;;;;;;7.17;100.00;101281.06;5041539;28;19952;-59
2023/12/30 10:27:55;;;;;;;21.60;5.47;;;;;;;7.19;100.00;101282.69;5034218;28;20026;-59
2023/12/30 10:30:20;;;;;;;20.60;5.60;;;;;;;7.22;100.00;101295.69;5041552;28;20499;-58
2023/12/30 10:32:46;;;;;;;24.75;6.13;;;;;;;7.25;100.00;101286.75;5042318;28;20021;-59
2023/12/30 10:35:15;;;;;;;20.60;5.80;;;;;;;7.27;100.00;101290.16;5019780;28;20090;-59
2023/12/30 10:37:42;;;;;;;22.98;6.82;;;;;;;7.31;100.00;101297.00;5034291;28;20045;-58
2023/12/30 10:40:09;;;;;;;23.85;6.75;;;;;;;7.33;100.00;101295.13;5037686;28;20072;-59
2023/12/30 10:42:34;;;;;;;18.27;6.05;;;;;;;7.34;100.00;101294.16;5031261;28;20053;-58
2023/12/30 10:45:00;;;;;;;27.30;6.40;;;;;;;7.37;100.00;101283.44;5034017;28;20427;-60
2023/12/30 10:47:27;;;;;;;22.17;5.68;;;;;;;7.40;100.00;101288.53;5033659;28;20112;-59
2023/12/30 10:49:56;;;;;;;20.83;5.25;;;;;;;7.42;100.00;101291.09;5037174;28;20124;-59
2023/12/30 10:52:24;;;;;;;24.00;6.50;;;;;;;7.45;100.00;101293.56;5032214;28;20025;-60
2023/12/30 10:55:08;;;;;;;23.40;5.88;;;;;;;7.50;100.00;101285.41;5034343;28;20520;-60
2023/12/30 10:57:36;;;;;;;25.52;5.80;;;;;;;7.53;100.00;101275.50;5029508;28;20099;-60
2023/12/30 11:00:08;;;;;;;19.58;5.88;;;;;;;7.56;100.00;101272.69;5032429;28;20368;-60
2023/12/30 11:02:35;;;;;;;21.67;5.43;;;;;;;7.59;100.00;101266.34;5032811;28;20103;-59
2023/12/30 11:05:05;;;;;;;24.83;5.85;;;;;;;7.63;100.00;101272.31;5034808;28;20297;-59
2023/12/30 11:07:31;;;;;;;21.20;5.53;;;;;;;7.65;100.00;101266.00;5032054;28;20017;-59
2023/12/30 11:09:57;;;;;;;23.17;5.93;;;;;;;7.68;100.00;101255.25;5035902;28;20034;-59